sensor_id;sensor_type;location;lat;lon;timestamp;pressure;altitude;pressure_sealevel;temperature;humidity
11605;BME280;5858;43.076;25.626;2023-07-31T00:00:18;98707.00;;;24.24;66.98
11605;BME280;5858;43.076;25.626;2023-07-31T00:02:49;98757.00;;;24.59;67.13
11605;BME280;5858;43.076;25.626;2023-07-31T00:05:16;98787.84;;;24.93;66.69
11605;BME280;5858;43.076;25.626;2023-07-31T00:07:43;98711.53;;;24.39;66.70
11605;BME280;5858;43.076;25.626;2023-07-31T00:10:10;98778.88;;;24.88;65.93
11605;BME280;5858;43.076;25.626;2023-07-31T00:12:38;98781.00;;;24.96;66.66
11605;BME280;5858;43.076;25.626;2023-07-31T00:15:06;98700.00;;;24.42;66.68
11605;BME280;5858;43.076;25.626;2023-07-31T00:17:33;98712.69;;;24.57;68.83
11605;BME280;5858;43.076;25.626;2023-07-31T00:20:01;98607.28;;;23.88;69.47
11605;BME280;5858;43.076;25.626;2023-07-31T00:22:28;98675.72;;;24.35;68.96
11605;BME280;5858;43.076;25.626;2023-07-31T00:24:56;98733.81;;;24.51;70.13
11605;BME280;5858;43.076;25.626;2023-07-31T00:27:22;98770.09;;;24.91;70.67
11605;BME280;5858;43.076;25.626;2023-07-31T00:29:49;98755.66;;;24.85;70.39
11605;BME280;5858;43.076;25.626;2023-07-31T00:32:19;98760.91;;;25.05;70.09
11605;BME280;5858;43.076;25.626;2023-07-31T00:34:46;98756.84;;;25.03;70.49
11605;BME280;5858;43.076;25.626;2023-07-31T00:37:14;98762.56;;;25.06;70.13
11605;BME280;5858;43.076;25.626;2023-07-31T00:39:41;98761.78;;;25.01;70.74
11605;BME280;5858;43.076;25.626;2023-07-31T00:42:08;98759.66;;;24.93;71.39
11605;BME280;5858;43.076;25.626;2023-07-31T00:44:35;98642.09;;;24.35;71.16
11605;BME280;5858;43.076;25.626;2023-07-31T00:47:01;98711.81;;;24.90;72.17
11605;BME280;5858;43.076;25.626;2023-07-31T00:49:28;98635.06;;;24.29;72.46
11605;BME280;5858;43.076;25.626;2023-07-31T00:51:55;98629.38;;;24.20;73.07
11605;BME280;5858;43.076;25.626;2023-07-31T00:54:25;98726.97;;;25.06;72.80
11605;BME280;5858;43.076;25.626;2023-07-31T00:56:53;98686.91;;;24.68;73.05
11605;BME280;5858;43.076;25.626;2023-07-31T00:59:20;98730.66;;;24.92;72.82
11605;BME280;5858;43.076;25.626;2023-07-31T01:01:47;98727.59;;;24.98;72.59
11605;BME280;5858;43.076;25.626;2023-07-31T01:04:15;98725.94;;;24.97;73.35
11605;BME280;5858;43.076;25.626;2023-07-31T01:06:48;98652.78;;;24.60;72.46
11605;BME280;5858;43.076;25.626;2023-07-31T01:09:21;98661.31;;;24.54;73.30
11605;BME280;5858;43.076;25.626;2023-07-31T01:11:53;98688.69;;;24.77;73.31
11605;BME280;5858;43.076;25.626;2023-07-31T01:14:22;98702.53;;;24.86;73.46
11605;BME280;5858;43.076;25.626;2023-07-31T01:16:49;98663.66;;;24.65;73.32
11605;BME280;5858;43.076;25.626;2023-07-31T01:19:18;98721.19;;;24.84;73.74
11605;BME280;5858;43.076;25.626;2023-07-31T01:21:59;98680.38;;;24.64;74.68
11605;BME280;5858;43.076;25.626;2023-07-31T01:24:36;98599.38;;;24.15;73.53
11605;BME280;5858;43.076;25.626;2023-07-31T01:27:12;98533.25;;;23.84;73.75
11605;BME280;5858;43.076;25.626;2023-07-31T01:29:45;98703.66;;;24.85;73.84
11605;BME280;5858;43.076;25.626;2023-07-31T01:32:13;98572.84;;;24.15;73.48
11605;BME280;5858;43.076;25.626;2023-07-31T01:34:41;98701.91;;;24.94;73.58
11605;BME280;5858;43.076;25.626;2023-07-31T01:37:08;98685.13;;;24.77;74.07
11605;BME280;5858;43.076;25.626;2023-07-31T01:39:35;98627.16;;;24.51;74.18
11605;BME280;5858;43.076;25.626;2023-07-31T01:42:02;98706.16;;;24.82;75.87
11605;BME280;5858;43.076;25.626;2023-07-31T01:44:30;98689.41;;;24.64;76.58
11605;BME280;5858;43.076;25.626;2023-07-31T01:46:58;98609.88;;;24.32;75.49
11605;BME280;5858;43.076;25.626;2023-07-31T01:49:25;98632.25;;;24.58;75.40
11605;BME280;5858;43.076;25.626;2023-07-31T01:51:52;98654.59;;;24.70;75.98
11605;BME280;5858;43.076;25.626;2023-07-31T01:54:19;98694.63;;;24.85;78.84
11605;BME280;5858;43.076;25.626;2023-07-31T01:56:46;98703.41;;;24.82;79.92
11605;BME280;5858;43.076;25.626;2023-07-31T01:59:13;98611.81;;;24.26;81.71
11605;BME280;5858;43.076;25.626;2023-07-31T02:01:41;98664.47;;;24.66;82.05
11605;BME280;5858;43.076;25.626;2023-07-31T02:04:08;98662.47;;;24.47;83.51
11605;BME280;5858;43.076;25.626;2023-07-31T02:06:34;98640.47;;;24.34;83.86
11605;BME280;5858;43.076;25.626;2023-07-31T02:09:01;98574.94;;;23.95;85.02
11605;BME280;5858;43.076;25.626;2023-07-31T02:11:28;98695.84;;;24.73;84.63
11605;BME280;5858;43.076;25.626;2023-07-31T02:13:55;98685.56;;;24.65;85.94
11605;BME280;5858;43.076;25.626;2023-07-31T02:16:22;98663.75;;;24.55;85.09
11605;BME280;5858;43.076;25.626;2023-07-31T02:18:50;98674.91;;;24.64;86.73
11605;BME280;5858;43.076;25.626;2023-07-31T02:21:17;98682.66;;;24.52;87.53
11605;BME280;5858;43.076;25.626;2023-07-31T02:23:44;98670.28;;;24.59;86.54
11605;BME280;5858;43.076;25.626;2023-07-31T02:26:11;98662.34;;;24.58;86.86
11605;BME280;5858;43.076;25.626;2023-07-31T02:28:38;98647.69;;;24.48;86.42
11605;BME280;5858;43.076;25.626;2023-07-31T02:31:04;98678.09;;;24.71;85.55
11605;BME280;5858;43.076;25.626;2023-07-31T02:33:31;98659.56;;;24.39;86.83
11605;BME280;5858;43.076;25.626;2023-07-31T02:35:59;98668.47;;;24.49;86.77
11605;BME280;5858;43.076;25.626;2023-07-31T02:38:32;98594.56;;;24.02;87.34
11605;BME280;5858;43.076;25.626;2023-07-31T02:41:00;98634.56;;;24.22;87.12
11605;BME280;5858;43.076;25.626;2023-07-31T02:43:29;98695.75;;;24.55;88.07
11605;BME280;5858;43.076;25.626;2023-07-31T02:45:56;98621.84;;;24.07;88.60
11605;BME280;5858;43.076;25.626;2023-07-31T02:48:23;98662.78;;;24.12;91.00
11605;BME280;5858;43.076;25.626;2023-07-31T02:50:50;98671.63;;;24.04;93.11
11605;BME280;5858;43.076;25.626;2023-07-31T02:53:21;98679.47;;;24.15;92.89
11605;BME280;5858;43.076;25.626;2023-07-31T02:55:48;98697.41;;;24.27;93.68
11605;BME280;5858;43.076;25.626;2023-07-31T02:58:15;98680.63;;;24.04;96.12
11605;BME280;5858;43.076;25.626;2023-07-31T03:00:44;98608.56;;;23.66;93.75
11605;BME280;5858;43.076;25.626;2023-07-31T03:03:11;98703.91;;;24.36;92.61
11605;BME280;5858;43.076;25.626;2023-07-31T03:05:38;98595.78;;;23.57;94.28
11605;BME280;5858;43.076;25.626;2023-07-31T03:08:05;98698.84;;;24.19;94.59
11605;BME280;5858;43.076;25.626;2023-07-31T03:10:33;98660.16;;;24.02;94.09
11605;BME280;5858;43.076;25.626;2023-07-31T03:13:00;98642.66;;;24.03;93.84
11605;BME280;5858;43.076;25.626;2023-07-31T03:15:27;98648.41;;;24.01;95.65
11605;BME280;5858;43.076;25.626;2023-07-31T03:17:54;98704.78;;;24.26;97.25
11605;BME280;5858;43.076;25.626;2023-07-31T03:20:21;98712.97;;;24.31;96.97
11605;BME280;5858;43.076;25.626;2023-07-31T03:22:47;98716.53;;;24.27;98.11
11605;BME280;5858;43.076;25.626;2023-07-31T03:25:14;98718.34;;;24.41;95.57
11605;BME280;5858;43.076;25.626;2023-07-31T03:27:43;98561.06;;;23.23;98.71
11605;BME280;5858;43.076;25.626;2023-07-31T03:30:10;98652.81;;;23.68;99.76
11605;BME280;5858;43.076;25.626;2023-07-31T03:32:37;98632.38;;;23.55;100.00
11605;BME280;5858;43.076;25.626;2023-07-31T03:35:05;98670.13;;;23.88;98.07
11605;BME280;5858;43.076;25.626;2023-07-31T03:37:34;98726.88;;;24.35;98.68
11605;BME280;5858;43.076;25.626;2023-07-31T03:40:01;98587.94;;;23.45;98.70
11605;BME280;5858;43.076;25.626;2023-07-31T03:42:29;98656.06;;;23.70;100.00
11605;BME280;5858;43.076;25.626;2023-07-31T03:45:01;98703.50;;;24.18;99.84
11605;BME280;5858;43.076;25.626;2023-07-31T03:47:28;98724.38;;;24.38;99.11
11605;BME280;5858;43.076;25.626;2023-07-31T03:49:55;98731.88;;;24.23;100.00
11605;BME280;5858;43.076;25.626;2023-07-31T03:52:24;98684.13;;;23.81;99.55
11605;BME280;5858;43.076;25.626;2023-07-31T03:54:51;98692.06;;;23.77;100.00
11605;BME280;5858;43.076;25.626;2023-07-31T03:57:18;98703.56;;;23.74;100.00
11605;BME280;5858;43.076;25.626;2023-07-31T03:59:45;98713.28;;;23.91;100.00
11605;BME280;5858;43.076;25.626;2023-07-31T04:02:14;98683.88;;;23.77;100.00
11605;BME280;5858;43.076;25.626;2023-07-31T04:04:41;98731.75;;;24.04;100.00
11605;BME280;5858;43.076;25.626;2023-07-31T04:07:08;98738.78;;;24.15;100.00
11605;BME280;5858;43.076;25.626;2023-07-31T04:09:35;98759.22;;;24.23;100.00
11605;BME280;5858;43.076;25.626;2023-07-31T04:12:02;98725.94;;;24.10;100.00
11605;BME280;5858;43.076;25.626;2023-07-31T04:14:29;98701.69;;;24.04;100.00
11605;BME280;5858;43.076;25.626;2023-07-31T04:16:56;98671.25;;;23.81;100.00
11605;BME280;5858;43.076;25.626;2023-07-31T04:19:24;98728.72;;;24.05;100.00
11605;BME280;5858;43.076;25.626;2023-07-31T04:21:51;98699.81;;;23.99;100.00
11605;BME280;5858;43.076;25.626;2023-07-31T04:24:18;98626.47;;;23.38;100.00
11605;BME280;5858;43.076;25.626;2023-07-31T04:26:49;98645.31;;;23.40;100.00
11605;BME280;5858;43.076;25.626;2023-07-31T04:29:16;98662.78;;;23.83;99.29
11605;BME280;5858;43.076;25.626;2023-07-31T04:31:43;98719.06;;;24.18;99.28
11605;BME280;5858;43.076;25.626;2023-07-31T04:34:15;98735.06;;;24.01;100.00
11605;BME280;5858;43.076;25.626;2023-07-31T04:36:46;98705.69;;;24.16;98.98
11605;BME280;5858;43.076;25.626;2023-07-31T04:39:14;98681.50;;;24.00;99.21
11605;BME280;5858;43.076;25.626;2023-07-31T04:41:47;98740.06;;;24.28;99.31
11605;BME280;5858;43.076;25.626;2023-07-31T04:44:19;98774.91;;;24.75;98.82
11605;BME280;5858;43.076;25.626;2023-07-31T04:46:51;98754.84;;;24.56;97.13
11605;BME280;5858;43.076;25.626;2023-07-31T04:49:21;98764.22;;;24.78;96.27
11605;BME280;5858;43.076;25.626;2023-07-31T04:51:49;98803.91;;;25.05;95.92
11605;BME280;5858;43.076;25.626;2023-07-31T04:54:22;98606.16;;;23.89;95.48
11605;BME280;5858;43.076;25.626;2023-07-31T04:56:52;98650.09;;;23.97;95.14
11605;BME280;5858;43.076;25.626;2023-07-31T04:59:32;98808.66;;;24.94;94.94
11605;BME280;5858;43.076;25.626;2023-07-31T05:01:59;98661.22;;;24.06;94.92
11605;BME280;5858;43.076;25.626;2023-07-31T05:04:29;98626.19;;;23.79;94.94
11605;BME280;5858;43.076;25.626;2023-07-31T05:07:07;98632.00;;;24.01;94.50
11605;BME280;5858;43.076;25.626;2023-07-31T05:10:48;98683.50;;;24.23;93.60
11605;BME280;5858;43.076;25.626;2023-07-31T05:12:46;98643.66;;;24.12;92.92
11605;BME280;5858;43.076;25.626;2023-07-31T05:15:14;98683.19;;;24.25;94.07
11605;BME280;5858;43.076;25.626;2023-07-31T05:17:41;98702.91;;;24.22;94.33
11605;BME280;5858;43.076;25.626;2023-07-31T05:20:08;98701.81;;;24.23;94.16
11605;BME280;5858;43.076;25.626;2023-07-31T05:22:37;98768.50;;;24.61;94.63
11605;BME280;5858;43.076;25.626;2023-07-31T05:25:05;98704.91;;;24.11;94.86
11605;BME280;5858;43.076;25.626;2023-07-31T05:27:32;98755.41;;;24.53;94.59
11605;BME280;5858;43.076;25.626;2023-07-31T05:29:59;98721.47;;;24.25;95.85
11605;BME280;5858;43.076;25.626;2023-07-31T05:32:28;98744.91;;;24.36;97.14
11605;BME280;5858;43.076;25.626;2023-07-31T05:34:55;98746.63;;;24.56;94.92
11605;BME280;5858;43.076;25.626;2023-07-31T05:37:23;98683.53;;;24.18;95.63
11605;BME280;5858;43.076;25.626;2023-07-31T05:39:51;98764.59;;;24.67;95.23
11605;BME280;5858;43.076;25.626;2023-07-31T05:42:18;98805.38;;;24.92;94.97
11605;BME280;5858;43.076;25.626;2023-07-31T05:44:48;98709.66;;;24.34;94.60
11605;BME280;5858;43.076;25.626;2023-07-31T05:47:15;98718.34;;;24.41;95.85
11605;BME280;5858;43.076;25.626;2023-07-31T05:49:44;98670.16;;;24.16;94.43
11605;BME280;5858;43.076;25.626;2023-07-31T05:52:11;98656.56;;;24.06;93.54
11605;BME280;5858;43.076;25.626;2023-07-31T05:54:44;98798.22;;;24.96;92.65
11605;BME280;5858;43.076;25.626;2023-07-31T05:57:13;98692.03;;;24.45;92.21
11605;BME280;5858;43.076;25.626;2023-07-31T05:59:40;98638.63;;;24.24;91.09
11605;BME280;5858;43.076;25.626;2023-07-31T06:02:07;98803.00;;;25.15;90.48
11605;BME280;5858;43.076;25.626;2023-07-31T06:04:44;98809.66;;;25.08;86.39
11605;BME280;5858;43.076;25.626;2023-07-31T06:07:14;98675.72;;;24.35;86.81
11605;BME280;5858;43.076;25.626;2023-07-31T06:09:49;98759.72;;;24.88;86.48
11605;BME280;5858;43.076;25.626;2023-07-31T06:12:29;98672.25;;;24.30;86.99
11605;BME280;5858;43.076;25.626;2023-07-31T06:14:56;98765.28;;;25.06;87.47
11605;BME280;5858;43.076;25.626;2023-07-31T06:17:23;98742.56;;;24.82;83.56
11605;BME280;5858;43.076;25.626;2023-07-31T06:19:54;98735.38;;;24.62;85.36
11605;BME280;5858;43.076;25.626;2023-07-31T06:22:35;98785.00;;;25.08;86.32
11605;BME280;5858;43.076;25.626;2023-07-31T06:25:02;98748.38;;;24.75;88.02
11605;BME280;5858;43.076;25.626;2023-07-31T06:27:44;98726.31;;;24.67;88.12
11605;BME280;5858;43.076;25.626;2023-07-31T06:30:12;98803.06;;;25.09;88.72
11605;BME280;5858;43.076;25.626;2023-07-31T06:32:38;98805.16;;;25.18;87.53
11605;BME280;5858;43.076;25.626;2023-07-31T06:35:07;98811.28;;;25.09;86.71
11605;BME280;5858;43.076;25.626;2023-07-31T06:37:34;98822.88;;;25.25;87.08
11605;BME280;5858;43.076;25.626;2023-07-31T06:40:01;98729.63;;;24.64;86.73
11605;BME280;5858;43.076;25.626;2023-07-31T06:42:28;98677.88;;;24.38;87.80
11605;BME280;5858;43.076;25.626;2023-07-31T06:44:56;98759.34;;;24.99;87.15
11605;BME280;5858;43.076;25.626;2023-07-31T06:47:23;98722.13;;;24.74;87.91
11605;BME280;5858;43.076;25.626;2023-07-31T06:49:50;98770.84;;;24.96;84.79
11605;BME280;5858;43.076;25.626;2023-07-31T06:52:17;98800.56;;;25.13;85.01
11605;BME280;5858;43.076;25.626;2023-07-31T06:54:56;98768.16;;;24.91;83.24
11605;BME280;5858;43.076;25.626;2023-07-31T06:57:46;98696.50;;;24.36;82.74
11605;BME280;5858;43.076;25.626;2023-07-31T07:00:15;98814.13;;;24.94;84.36
11605;BME280;5858;43.076;25.626;2023-07-31T07:02:46;98672.66;;;24.13;83.78
11605;BME280;5858;43.076;25.626;2023-07-31T07:05:18;98792.22;;;24.70;84.62
11605;BME280;5858;43.076;25.626;2023-07-31T07:07:51;98762.56;;;24.48;83.13
11605;BME280;5858;43.076;25.626;2023-07-31T07:10:35;98857.00;;;25.09;84.38
11605;BME280;5858;43.076;25.626;2023-07-31T07:13:10;98750.75;;;24.24;83.39
11605;BME280;5858;43.076;25.626;2023-07-31T07:16:05;98772.78;;;24.38;83.51
11605;BME280;5858;43.076;25.626;2023-07-31T07:18:41;98765.78;;;24.56;82.39
11605;BME280;5858;43.076;25.626;2023-07-31T07:21:13;98741.50;;;24.49;81.87
11605;BME280;5858;43.076;25.626;2023-07-31T07:23:51;98792.91;;;24.81;81.89
11605;BME280;5858;43.076;25.626;2023-07-31T07:26:21;98749.78;;;24.73;80.48
11605;BME280;5858;43.076;25.626;2023-07-31T07:28:48;98845.47;;;25.36;77.34
11605;BME280;5858;43.076;25.626;2023-07-31T07:38:02;98787.34;;;24.91;80.41
11605;BME280;5858;43.076;25.626;2023-07-31T07:40:47;98799.44;;;25.14;79.93
11605;BME280;5858;43.076;25.626;2023-07-31T07:44:00;98854.06;;;25.77;77.62
11605;BME280;5858;43.076;25.626;2023-07-31T07:46:28;98748.34;;;25.04;77.12
11605;BME280;5858;43.076;25.626;2023-07-31T07:48:56;98710.81;;;25.05;77.73
11605;BME280;5858;43.076;25.626;2023-07-31T07:51:30;98781.53;;;25.69;76.29
11605;BME280;5858;43.076;25.626;2023-07-31T07:54:03;98816.00;;;26.13;73.04
11605;BME280;5858;43.076;25.626;2023-07-31T07:56:36;98813.78;;;26.66;73.13
11605;BME280;5858;43.076;25.626;2023-07-31T07:59:06;98820.31;;;27.17;69.32
11605;BME280;5858;43.076;25.626;2023-07-31T08:01:39;98797.63;;;27.39;64.51
11605;BME280;5858;43.076;25.626;2023-07-31T08:04:06;98853.31;;;27.72;62.16
11605;BME280;5858;43.076;25.626;2023-07-31T08:06:35;98827.34;;;27.50;62.16
11605;BME280;5858;43.076;25.626;2023-07-31T08:09:02;98696.78;;;26.57;63.42
11605;BME280;5858;43.076;25.626;2023-07-31T08:11:46;98852.16;;;27.18;61.64
11605;BME280;5858;43.076;25.626;2023-07-31T08:14:13;98768.25;;;26.79;62.54
11605;BME280;5858;43.076;25.626;2023-07-31T08:16:43;98715.78;;;26.53;62.36
11605;BME280;5858;43.076;25.626;2023-07-31T08:19:11;98853.38;;;27.39;62.63
11605;BME280;5858;43.076;25.626;2023-07-31T08:21:43;98801.38;;;27.02;59.72
11605;BME280;5858;43.076;25.626;2023-07-31T08:24:10;98791.06;;;26.93;61.30
11605;BME280;5858;43.076;25.626;2023-07-31T08:26:40;98707.97;;;26.60;60.22
11605;BME280;5858;43.076;25.626;2023-07-31T08:29:07;98850.88;;;27.70;60.56
11605;BME280;5858;43.076;25.626;2023-07-31T08:31:41;98748.16;;;26.97;60.16
11605;BME280;5858;43.076;25.626;2023-07-31T08:37:32;98692.59;;;26.87;59.72
11605;BME280;5858;43.076;25.626;2023-07-31T08:40:02;98823.84;;;27.86;58.25
11605;BME280;5858;43.076;25.626;2023-07-31T08:42:29;98848.78;;;28.03;58.74
11605;BME280;5858;43.076;25.626;2023-07-31T08:44:57;98854.41;;;27.98;57.47
11605;BME280;5858;43.076;25.626;2023-07-31T08:47:26;98832.13;;;28.22;57.99
11605;BME280;5858;43.076;25.626;2023-07-31T08:49:54;98756.22;;;28.21;56.27
11605;BME280;5858;43.076;25.626;2023-07-31T08:52:25;98794.56;;;28.62;56.94
11605;BME280;5858;43.076;25.626;2023-07-31T08:54:56;98717.06;;;28.46;57.82
11605;BME280;5858;43.076;25.626;2023-07-31T08:57:24;98815.66;;;29.29;53.30
11605;BME280;5858;43.076;25.626;2023-07-31T08:59:54;98759.16;;;29.00;53.37
11605;BME280;5858;43.076;25.626;2023-07-31T09:02:23;98766.56;;;28.91;52.63
11605;BME280;5858;43.076;25.626;2023-07-31T09:05:02;98697.16;;;28.49;54.50
11605;BME280;5858;43.076;25.626;2023-07-31T09:07:31;98730.59;;;28.65;53.46
11605;BME280;5858;43.076;25.626;2023-07-31T09:10:02;98814.03;;;29.28;52.76
11605;BME280;5858;43.076;25.626;2023-07-31T09:12:33;98790.16;;;29.14;54.04
11605;BME280;5858;43.076;25.626;2023-07-31T09:15:11;98702.25;;;28.34;53.94
11605;BME280;5858;43.076;25.626;2023-07-31T09:17:58;98766.72;;;28.86;54.92
11605;BME280;5858;43.076;25.626;2023-07-31T09:20:26;98769.78;;;28.62;54.80
11605;BME280;5858;43.076;25.626;2023-07-31T09:22:54;98807.97;;;28.55;54.15
11605;BME280;5858;43.076;25.626;2023-07-31T09:25:26;98808.72;;;28.11;53.59
11605;BME280;5858;43.076;25.626;2023-07-31T09:27:57;98690.81;;;27.59;55.03
11605;BME280;5858;43.076;25.626;2023-07-31T09:36:50;98756.94;;;29.11;51.00
11605;BME280;5858;43.076;25.626;2023-07-31T09:44:44;98771.84;;;29.10;48.11
11605;BME280;5858;43.076;25.626;2023-07-31T09:47:26;98740.59;;;29.23;47.86
11605;BME280;5858;43.076;25.626;2023-07-31T09:49:56;98699.22;;;29.06;49.35
11605;BME280;5858;43.076;25.626;2023-07-31T09:52:38;98730.13;;;28.94;48.46
11605;BME280;5858;43.076;25.626;2023-07-31T09:55:06;98799.09;;;29.68;45.69
11605;BME280;5858;43.076;25.626;2023-07-31T09:57:34;98800.41;;;29.71;46.85
11605;BME280;5858;43.076;25.626;2023-07-31T10:00:07;98719.25;;;28.89;47.68
11605;BME280;5858;43.076;25.626;2023-07-31T10:02:36;98796.66;;;29.50;48.88
11605;BME280;5858;43.076;25.626;2023-07-31T10:05:05;98746.53;;;29.08;47.42
11605;BME280;5858;43.076;25.626;2023-07-31T10:07:37;98733.88;;;28.76;47.52
11605;BME280;5858;43.076;25.626;2023-07-31T10:10:07;98766.63;;;28.77;47.33
11605;BME280;5858;43.076;25.626;2023-07-31T10:12:44;98817.13;;;28.87;47.82
11605;BME280;5858;43.076;25.626;2023-07-31T10:15:15;98810.41;;;29.10;47.94
11605;BME280;5858;43.076;25.626;2023-07-31T10:17:45;98723.69;;;28.76;47.04
11605;BME280;5858;43.076;25.626;2023-07-31T10:20:21;98715.69;;;28.89;46.72
11605;BME280;5858;43.076;25.626;2023-07-31T10:22:57;98721.09;;;28.80;47.37
11605;BME280;5858;43.076;25.626;2023-07-31T10:25:33;98821.88;;;29.34;47.54
11605;BME280;5858;43.076;25.626;2023-07-31T10:28:04;98831.88;;;29.30;47.49
11605;BME280;5858;43.076;25.626;2023-07-31T10:30:40;98671.09;;;28.47;47.38
11605;BME280;5858;43.076;25.626;2023-07-31T10:33:11;98766.91;;;29.38;47.29
11605;BME280;5858;43.076;25.626;2023-07-31T10:35:41;98774.00;;;29.87;46.29
11605;BME280;5858;43.076;25.626;2023-07-31T10:38:12;98710.22;;;29.80;45.40
11605;BME280;5858;43.076;25.626;2023-07-31T10:40:39;98769.16;;;30.27;44.25
11605;BME280;5858;43.076;25.626;2023-07-31T10:43:08;98765.53;;;30.61;43.75
11605;BME280;5858;43.076;25.626;2023-07-31T10:45:47;98694.00;;;30.13;45.22
11605;BME280;5858;43.076;25.626;2023-07-31T10:48:16;98797.66;;;30.92;43.65
11605;BME280;5858;43.076;25.626;2023-07-31T10:50:47;98685.06;;;29.73;44.85
11605;BME280;5858;43.076;25.626;2023-07-31T10:53:22;98725.13;;;29.79;45.09
11605;BME280;5858;43.076;25.626;2023-07-31T10:55:50;98703.56;;;29.55;45.42
11605;BME280;5858;43.076;25.626;2023-07-31T10:58:20;98729.03;;;29.69;45.65
11605;BME280;5858;43.076;25.626;2023-07-31T11:00:48;98655.31;;;29.27;45.61
11605;BME280;5858;43.076;25.626;2023-07-31T11:03:24;98732.44;;;29.66;45.23
11605;BME280;5858;43.076;25.626;2023-07-31T11:06:00;98688.69;;;29.08;45.74
11605;BME280;5858;43.076;25.626;2023-07-31T11:08:44;98792.13;;;29.54;46.62
11605;BME280;5858;43.076;25.626;2023-07-31T11:11:13;98777.34;;;29.50;47.16
11605;BME280;5858;43.076;25.626;2023-07-31T11:13:44;98785.50;;;29.32;46.82
11605;BME280;5858;43.076;25.626;2023-07-31T11:16:16;98643.94;;;28.63;47.48
11605;BME280;5858;43.076;25.626;2023-07-31T11:18:45;98737.03;;;29.31;47.71
11605;BME280;5858;43.076;25.626;2023-07-31T11:21:13;98797.47;;;29.59;46.92
11605;BME280;5858;43.076;25.626;2023-07-31T11:23:41;98799.59;;;29.62;46.52
11605;BME280;5858;43.076;25.626;2023-07-31T11:26:14;98642.53;;;28.74;46.20
11605;BME280;5858;43.076;25.626;2023-07-31T11:28:53;98697.13;;;29.20;46.46
11605;BME280;5858;43.076;25.626;2023-07-31T11:31:24;98660.47;;;29.02;46.17
11605;BME280;5858;43.076;25.626;2023-07-31T11:34:04;98605.69;;;29.01;44.82
11605;BME280;5858;43.076;25.626;2023-07-31T11:36:47;98662.69;;;29.49;44.50
11605;BME280;5858;43.076;25.626;2023-07-31T11:39:26;98628.47;;;29.50;44.31
11605;BME280;5858;43.076;25.626;2023-07-31T11:42:18;98632.34;;;29.66;43.83
11605;BME280;5858;43.076;25.626;2023-07-31T11:45:16;98636.22;;;29.65;42.88
11605;BME280;5858;43.076;25.626;2023-07-31T11:55:06;98719.28;;;30.41;43.18
11605;BME280;5858;43.076;25.626;2023-07-31T11:57:40;98642.47;;;30.26;43.23
11605;BME280;5858;43.076;25.626;2023-07-31T12:00:20;98600.31;;;30.17;42.04
11605;BME280;5858;43.076;25.626;2023-07-31T12:03:07;98595.00;;;29.94;42.89
11605;BME280;5858;43.076;25.626;2023-07-31T12:05:53;98711.44;;;30.60;42.08
11605;BME280;5858;43.076;25.626;2023-07-31T12:08:29;98598.25;;;29.70;42.06
11605;BME280;5858;43.076;25.626;2023-07-31T12:11:03;98581.25;;;29.60;42.31
11605;BME280;5858;43.076;25.626;2023-07-31T12:13:31;98672.03;;;30.25;42.24
11605;BME280;5858;43.076;25.626;2023-07-31T12:16:03;98654.22;;;30.69;40.30
11605;BME280;5858;43.076;25.626;2023-07-31T12:18:34;98604.41;;;30.49;42.50
11605;BME280;5858;43.076;25.626;2023-07-31T12:21:37;98716.28;;;31.10;41.68
11605;BME280;5858;43.076;25.626;2023-07-31T12:24:07;98635.81;;;30.82;41.14
11605;BME280;5858;43.076;25.626;2023-07-31T12:26:40;98634.56;;;31.00;41.75
11605;BME280;5858;43.076;25.626;2023-07-31T12:29:10;98634.94;;;31.20;40.83
11605;BME280;5858;43.076;25.626;2023-07-31T12:31:42;98573.09;;;30.74;39.38
11605;BME280;5858;43.076;25.626;2023-07-31T12:34:19;98575.28;;;30.22;41.16
11605;BME280;5858;43.076;25.626;2023-07-31T12:36:47;98602.06;;;30.30;42.02
11605;BME280;5858;43.076;25.626;2023-07-31T12:39:18;98639.00;;;30.93;40.37
11605;BME280;5858;43.076;25.626;2023-07-31T12:41:49;98624.31;;;31.01;41.21
11605;BME280;5858;43.076;25.626;2023-07-31T12:44:36;98580.38;;;31.08;40.38
11605;BME280;5858;43.076;25.626;2023-07-31T12:47:08;98690.31;;;31.82;40.92
11605;BME280;5858;43.076;25.626;2023-07-31T12:49:35;98621.69;;;31.34;40.70
11605;BME280;5858;43.076;25.626;2023-07-31T12:52:04;98630.09;;;31.58;40.61
11605;BME280;5858;43.076;25.626;2023-07-31T12:54:31;98592.81;;;31.23;40.64
11605;BME280;5858;43.076;25.626;2023-07-31T12:57:00;98665.25;;;31.37;40.29
11605;BME280;5858;43.076;25.626;2023-07-31T12:59:30;98671.16;;;30.97;41.58
11605;BME280;5858;43.076;25.626;2023-07-31T13:02:06;98684.72;;;31.11;41.72
11605;BME280;5858;43.076;25.626;2023-07-31T13:04:33;98582.13;;;30.54;42.01
11605;BME280;5858;43.076;25.626;2023-07-31T13:07:07;98671.16;;;30.97;42.62
11605;BME280;5858;43.076;25.626;2023-07-31T13:09:37;98634.66;;;30.83;43.30
11605;BME280;5858;43.076;25.626;2023-07-31T13:12:09;98595.41;;;30.69;42.31
11605;BME280;5858;43.076;25.626;2023-07-31T13:14:36;98702.59;;;31.73;41.93
11605;BME280;5858;43.076;25.626;2023-07-31T13:17:03;98659.13;;;31.31;40.79
11605;BME280;5858;43.076;25.626;2023-07-31T13:19:31;98688.38;;;31.53;40.86
11605;BME280;5858;43.076;25.626;2023-07-31T13:22:01;98704.22;;;31.74;40.51
11605;BME280;5858;43.076;25.626;2023-07-31T13:24:30;98555.81;;;30.56;40.66
11605;BME280;5858;43.076;25.626;2023-07-31T13:27:02;98660.94;;;31.48;40.61
11605;BME280;5858;43.076;25.626;2023-07-31T13:29:31;98635.56;;;31.46;41.07
11605;BME280;5858;43.076;25.626;2023-07-31T13:31:58;98596.31;;;31.32;41.89
11605;BME280;5858;43.076;25.626;2023-07-31T13:34:32;98664.97;;;31.30;41.55
11605;BME280;5858;43.076;25.626;2023-07-31T13:36:59;98548.81;;;30.59;41.91
11605;BME280;5858;43.076;25.626;2023-07-31T13:39:26;98677.63;;;31.01;43.00
11605;BME280;5858;43.076;25.626;2023-07-31T13:41:56;98569.16;;;30.07;43.25
11605;BME280;5858;43.076;25.626;2023-07-31T13:44:25;98626.72;;;30.35;44.10
11605;BME280;5858;43.076;25.626;2023-07-31T13:46:54;98595.00;;;29.94;44.43